Terminal Aerodrome Forecast
Issued by NWS

Home | Current Version | Previous Version | Text Only | Print | Product List | Glossary On
Versions: 1 2 3 4 5 6 7 8 9 10 11 12 13 14 15 16
400
FTUS43 KFGF 161352 AAA
TAFBJI
TAF AMD
KBJI 161352Z 1614/1712 15003KT P6SM SKC
      TEMPO 1614/1615 5SM BR
     FM170300 00000KT 5SM BR SCT150
     FM171100 00000KT 5SM BR SCT050=

USA.gov is the U.S. government's official web portal to all federal, state and local government web resources and services.